• Join FlightAware (Why Join?)
  • Login
  • US Flag 
06:08PM EDT


 

Airport Tracker/Info


-or-


 

Live Flight TrackerFlight Track Log ✈ CTL22 ✈ 23-Apr-2013 ✈ KBKL - KGRR

Flight Track Log - Related Links

Times and Time Zones

All times are in EDT time to prevent confusion due to time zone crossing. See the CTL22 flight status page for this flight to view local times or setup timezone preferences in your user account.

Time Position Orientation Groundspeed Altitude Reporting Facility
EDT Latitude Longitude Course Direction KTS MPH feet Rate Location/Type
10:37PM 41.8825 -82.1719 297° West 166 191 6,000  Level FAA TRACON SMA TRACON (SMA)
10:37PM 41.8883 -82.1897 294° West 167 192 6,000  Level FAA TRACON SMA TRACON (SMA)
10:37PM 41.8961 -82.2064 302° West 169 194 6,000  Level FAA TRACON SMA TRACON (SMA)
10:38PM 41.9039 -82.2236 301° West 171 197 6,000  Level FAA TRACON SMA TRACON (SMA)
10:38PM 41.9122 -82.2453 297° West 171 197 6,000  Level FAA TRACON SMA TRACON (SMA)
10:38PM 41.9186 -82.2631 296° West 170 196 6,000  Level FAA TRACON SMA TRACON (SMA)
10:39PM 41.9261 -82.2853 294° West 170 196 6,000  Level FAA TRACON SMA TRACON (SMA)
10:39PM 41.9322 -82.3028 295° West 170 196 6,000 -180 Level FAA TRACON SMA TRACON (SMA)
10:39PM 41.9383 -82.3203 295° West 170 196 5,900  Descending FAA TRACON SMA TRACON (SMA)
10:40PM 41.9467 -82.3425 297° West 170 196 6,000 300 Climbing FAA TRACON SMA TRACON (SMA)
10:40PM 41.9525 -82.3600 294° West 169 194 6,100  Climbing FAA TRACON SMA TRACON (SMA)
10:40PM 41.9586 -82.3778 295° West 169 194 6,000 -300 Descending FAA TRACON SMA TRACON (SMA)
10:41PM 41.9658 -82.4003 293° West 170 196 5,900  Descending FAA TRACON SMA TRACON (SMA)
10:41PM 41.9722 -82.4183 295° West 171 197 6,000 120 Climbing FAA TRACON SMA TRACON (SMA)
10:41PM 41.9786 -82.4350 297° West 171 197 6,000  Level FAA TRACON SMA TRACON (SMA)
10:42PM 41.8568 -82.5912 297° West  Level Estimated
10:42PM 41.9869 -82.4572 297° West 171 197 6,000  Level FAA TRACON SMA TRACON (SMA)
10:42PM 41.9939 -82.4744 298° West 172 198 6,000 120 Level FAA TRACON SMA TRACON (SMA)
10:42PM 42.0003 -82.4944 293° West 172 198 6,100 60 Climbing Cleveland Center
10:43PM 42.0222 -82.5564 296° West 168 193 6,100  Level Cleveland Center
10:44PM 42.0400 -82.6131 293° West 171 197 6,100  Level Cleveland Center
10:45PM 42.0597 -82.6722 294° West 170 196 6,100  Level Cleveland Center
10:46PM 42.0753 -82.7317 289° West 170 196 6,100  Level Cleveland Center
10:47PM 42.0931 -82.7881 293° West 165 190 6,100  Level Cleveland Center
10:48PM 42.1086 -82.8447 290° West 166 191 6,100  Level Cleveland Center
10:49PM 42.1283 -82.9014 295° West 167 192 6,100  Level Cleveland Center
10:50PM 42.1500 -82.9639 295° West 170 196 6,100 -60 Level Cleveland Center
10:51PM 42.1694 -83.0233 294° West 174 200 6,000  Descending Cleveland Center
10:52PM 42.1892 -83.0831 294° West 170 196 6,100  Climbing Cleveland Center
10:53PM 42.2067 -83.1264 299° West 168 193 6,100  Level FAA TRACON SMA TRACON (SMA)
10:54PM 42.2142 -83.1483 295° West 168 193 6,100  Level FAA TRACON SMA TRACON (SMA)
10:54PM 42.2200 -83.1656 295° West 166 191 6,100  Level FAA TRACON SMA TRACON (SMA)
10:54PM 42.2267 -83.1878 292° West 166 191 6,100 -180 Level FAA TRACON SMA TRACON (SMA)
10:55PM 42.2314 -83.2053 290° West 165 190 6,000  Descending FAA TRACON SMA TRACON (SMA)
10:55PM 42.2364 -83.2231 291° West 163 188 6,100 120 Climbing FAA TRACON SMA TRACON (SMA)
10:55PM 42.2425 -83.2447 291° West 161 185 6,100  Level FAA TRACON SMA TRACON (SMA)
10:56PM 42.2475 -83.2608 293° West 160 184 6,100  Level FAA TRACON SMA TRACON (SMA)
10:56PM 42.2539 -83.2819 292° West 164 189 6,100  Level FAA TRACON SMA TRACON (SMA)
10:56PM 42.2592 -83.2989 293° West 161 185 6,100  Level FAA TRACON SMA TRACON (SMA)
10:57PM 42.2639 -83.3158 291° West 158 182 6,100  Level FAA TRACON SMA TRACON (SMA)
10:57PM 42.2700 -83.3364 292° West 159 183 6,100  Level FAA TRACON SMA TRACON (SMA)
10:57PM 42.2761 -83.3561 293° West 154 177 6,100 -180 Level FAA TRACON SMA TRACON (SMA)
10:58PM 42.2800 -83.3717 289° West 157 181 6,000  Descending FAA TRACON SMA TRACON (SMA)
10:58PM 42.2867 -83.3922 294° West 152 175 6,100 120 Climbing FAA TRACON SMA TRACON (SMA)
10:58PM 42.2914 -83.4086 291° West 154 177 6,100  Level FAA TRACON SMA TRACON (SMA)
10:59PM 42.2961 -83.4256 291° West 153 176 6,100  Level FAA TRACON SMA TRACON (SMA)
10:59PM 42.3025 -83.4461 293° West 154 177 6,100  Level FAA TRACON SMA TRACON (SMA)
10:59PM 42.3081 -83.4631 294° West 158 182 6,100  Level FAA TRACON SMA TRACON (SMA)
11:00PM 42.3133 -83.4800 293° West 158 182 6,100  Level FAA TRACON SMA TRACON (SMA)
11:00PM 42.3197 -83.5017 292° West 159 183 6,100  Level FAA TRACON SMA TRACON (SMA)
11:00PM 42.3250 -83.5186 293° West 159 183 6,100  Level FAA TRACON SMA TRACON (SMA)
11:01PM 42.3314 -83.5397 292° West 159 183 6,100  Level FAA TRACON SMA TRACON (SMA)
11:01PM 42.3386 -83.5558 301° West 158 182 6,100  Level FAA TRACON SMA TRACON (SMA)
11:01PM 42.3453 -83.5728 298° West 162 186 6,100 -180 Level FAA TRACON SMA TRACON (SMA)
11:02PM 42.3511 -83.5894 295° West 160 184 6,000  Descending FAA TRACON SMA TRACON (SMA)
11:02PM 42.3586 -83.6108 295° West 162 186 6,100 120 Climbing FAA TRACON SMA TRACON (SMA)
11:02PM 42.3622 -83.6278 286° West 146 168 6,100  Level FAA TRACON SMA TRACON (SMA)
11:03PM 42.3661 -83.6450 287° West 148 170 6,100 -180 Level FAA TRACON SMA TRACON (SMA)
11:03PM 42.3719 -83.6664 290° West 159 183 6,000  Descending FAA TRACON SMA TRACON (SMA)
11:03PM 42.3783 -83.6836 297° West 163 188 6,100 120 Climbing FAA TRACON SMA TRACON (SMA)
11:04PM 42.3828 -83.7003 290° West 155 178 6,100 -180 Level FAA TRACON SMA TRACON (SMA)
11:04PM 42.3878 -83.7214 288° West 158 182 6,000  Descending FAA TRACON SMA TRACON (SMA)
11:04PM 42.3944 -83.7381 298° West 162 186 6,100 120 Climbing FAA TRACON SMA TRACON (SMA)
11:05PM 42.3992 -83.7544 291° West 154 177 6,100 120 Level FAA TRACON SMA TRACON (SMA)
11:05PM 42.4056 -83.7767 291° West 162 186 6,200  Climbing FAA TRACON SMA TRACON (SMA)
11:05PM 42.4097 -83.7942 288° West 161 185 6,100 -180 Descending FAA TRACON SMA TRACON (SMA)
11:06PM 42.4128 -83.8122 283° West 170 196 6,100  Level FAA TRACON SMA TRACON (SMA)
11:06PM 42.4181 -83.8336 288° West 157 181 6,100  Level FAA TRACON SMA TRACON (SMA)
11:06PM 42.4219 -83.8508 287° West 156 180 6,100  Level FAA TRACON SMA TRACON (SMA)
11:07PM 42.4283 -83.8672 298° West 173 199 6,100  Level FAA TRACON SMA TRACON (SMA)
11:07PM 42.4347 -83.8894 291° West 156 180 6,100  Level FAA TRACON SMA TRACON (SMA)
11:07PM 42.4406 -83.9075 294° West 173 199 6,100  Level FAA TRACON SMA TRACON (SMA)
11:08PM 42.4461 -83.9253 293° West 165 190 6,100  Level FAA TRACON SMA TRACON (SMA)
11:08PM 42.4519 -83.9475 290° West 164 189 6,100  Level FAA TRACON SMA TRACON (SMA)
11:08PM 42.4572 -83.9653 292° West 166 191 6,100  Level FAA TRACON SMA TRACON (SMA)
11:09PM 42.4622 -83.9833 291° West 166 191 6,100  Level FAA TRACON SMA TRACON (SMA)
11:09PM 42.4689 -84.0061 292° West 168 193 6,100  Level FAA TRACON SMA TRACON (SMA)
11:09PM 42.4736 -84.0244 289° West 167 192 6,100 -180 Level FAA TRACON SMA TRACON (SMA)
11:10PM 42.4769 -84.0428 284° West 166 191 6,000  Descending FAA TRACON SMA TRACON (SMA)
11:10PM 42.4828 -84.0644 290° West 159 183 6,100 120 Climbing FAA TRACON SMA TRACON (SMA)
11:10PM 42.4875 -84.0811 291° West 156 180 6,100  Level FAA TRACON SMA TRACON (SMA)
11:11PM 42.4917 -84.0981 288° West 155 178 6,100  Level FAA TRACON SMA TRACON (SMA)
11:11PM 42.4964 -84.1197 286° West 156 180 6,100  Level FAA TRACON SMA TRACON (SMA)
11:11PM 42.5000 -84.1375 285° West 156 180 6,100  Level FAA TRACON SMA TRACON (SMA)
11:12PM 42.5036 -84.1547 286° West 156 180 6,100  Level FAA TRACON SMA TRACON (SMA)
11:12PM 42.5108 -84.1761 295° West 160 184 6,100  Level FAA TRACON SMA TRACON (SMA)
11:12PM 42.5161 -84.1933 293° West 160 184 6,100  Level FAA TRACON SMA TRACON (SMA)
11:13PM 42.5189 -84.2119 281° West 162 186 6,100  Level FAA TRACON SMA TRACON (SMA)
11:13PM 42.5242 -84.2339 288° West 159 183 6,100  Level FAA TRACON SMA TRACON (SMA)
11:13PM 42.5306 -84.2506 297° West 173 199 6,100  Level FAA TRACON SMA TRACON (SMA)
11:14PM 42.5361 -84.2675 294° West 161 185 6,100  Level FAA TRACON SMA TRACON (SMA)
11:14PM 42.5431 -84.2889 294° West 162 186 6,100 -180 Level FAA TRACON SMA TRACON (SMA)
11:14PM 42.5492 -84.3056 296° West 159 183 6,000  Descending FAA TRACON SMA TRACON (SMA)
11:15PM 42.5539 -84.3231 290° West 160 184 6,100 120 Climbing FAA TRACON SMA TRACON (SMA)
11:15PM 42.5581 -84.3447 285° West 158 182 6,100  Level FAA TRACON SMA TRACON (SMA)
11:15PM 42.5619 -84.3619 287° West 155 178 6,100 -180 Level FAA TRACON SMA TRACON (SMA)
11:16PM 42.5681 -84.3783 297° West 157 181 6,000 -180 Descending FAA TRACON SMA TRACON (SMA)
11:16PM 42.5753 -84.3992 295° West 158 182 6,000  Level FAA TRACON SMA TRACON (SMA)
11:16PM 42.5814 -84.4153 297° West 157 181 6,000  Level FAA TRACON SMA TRACON (SMA)
11:17PM 42.5869 -84.4317 295° West 156 180 6,000  Level FAA TRACON SMA TRACON (SMA)
11:17PM 42.5883 -84.4358 294° West 156 180 6,000  Level FAA TRACON SMA TRACON (SMA)
11:19PM 42.6167 -84.5356 291° West 157 181 6,100  Climbing Chicago Center
11:20PM 42.6331 -84.5897 292° West 156 180 6,100  Level Chicago Center
11:21PM 42.6472 -84.6436 290° West 154 177 6,100  Level Chicago Center
11:22PM 42.6647 -84.6978 294° West 157 181 6,100  Level Chicago Center
11:23PM 42.6817 -84.7525 293° West 158 182 6,100  Level Chicago Center
11:24PM 42.6900 -84.8061 282° West 150 173 6,100 -60 Level Chicago Center
11:25PM 42.7061 -84.8611 292° West 155 178 6,000  Descending Chicago Center
11:26PM 42.7267 -84.9231 294° West 151 174 6,100 60 Climbing Chicago Center
11:27PM 42.7436 -84.9747 294° West 151 174 6,200 -300 Climbing Chicago Center
11:28PM 42.7656 -85.0297 299° West 163 188 5,600 -480 Descending Chicago Center
11:29PM 42.7858 -85.0875 296° West 167 192 5,300 -300 Descending Chicago Center
11:30PM 42.8097 -85.1456 299° West 174 200 5,000 -480 Descending Chicago Center
11:31PM 42.8319 -85.2047 297° West 177 204 4,400 -660 Descending Chicago Center
11:32PM 42.8669 -85.2567 313° West 185 213 3,700 -720 Descending Chicago Center
11:33PM 42.8969 -85.3083 308° West 181 208 3,000 -420 Descending Chicago Center
11:34PM 42.8950 -85.3717 268° West 177 204 2,900 -360 Descending Chicago Center
11:35PM 42.8897 -85.4228 262° West 154 177 2,300 -840 Descending Chicago Center
11:36PM 42.8836 -85.4792 262° West 135 155 1,300 -660 Descending Chicago Center
11:37PM 42.8786 -85.5200 261° West 130 150 1,000 -300 Descending Chicago Center